createdAt,value
2023-02-01T00:00:31.965Z,47.10
2023-02-01T00:02:58.828Z,46.90
2023-02-01T00:05:25.648Z,47.00
2023-02-01T00:07:52.579Z,47.20
2023-02-01T00:10:19.793Z,47.40
2023-02-01T00:12:46.855Z,47.40
2023-02-01T00:15:13.687Z,47.50
2023-02-01T00:17:40.556Z,47.70
2023-02-01T00:20:08.148Z,47.80
2023-02-01T00:22:35.216Z,47.90
2023-02-01T00:25:02.157Z,48.10
2023-02-01T00:27:29.047Z,48.00
2023-02-01T00:29:56.882Z,48.30
2023-02-01T00:32:23.805Z,48.40
2023-02-01T00:34:50.662Z,48.40
2023-02-01T00:37:17.552Z,48.40
2023-02-01T00:39:44.410Z,48.40
2023-02-01T00:42:11.413Z,48.50
2023-02-01T00:44:38.340Z,48.40
2023-02-01T00:47:05.158Z,48.40
2023-02-01T00:49:32.159Z,48.50
2023-02-01T00:51:59.118Z,48.50
2023-02-01T00:54:25.931Z,48.60
2023-02-01T00:56:52.787Z,49.00
2023-02-01T00:59:19.738Z,48.60
2023-02-01T01:01:46.657Z,48.70
2023-02-01T01:04:13.542Z,48.90
2023-02-01T01:06:40.448Z,48.80
2023-02-01T01:09:08.572Z,49.60
2023-02-01T01:11:38.599Z,49.10
2023-02-01T01:14:06.475Z,49.20
2023-02-01T01:16:33.808Z,50.10
2023-02-01T01:19:01.599Z,49.50
2023-02-01T01:21:29.330Z,49.40
2023-02-01T01:23:56.364Z,49.40
2023-02-01T01:26:26.067Z,49.50
2023-02-01T01:28:53.270Z,49.60
2023-02-01T01:31:21.350Z,49.60
2023-02-01T01:33:52.467Z,49.70
2023-02-01T01:36:19.764Z,49.60
2023-02-01T01:38:46.785Z,49.50
2023-02-01T01:41:23.049Z,49.70
2023-02-01T01:43:56.156Z,49.60
2023-02-01T01:46:31.928Z,49.70
2023-02-01T01:49:10.480Z,49.80
2023-02-01T01:51:48.808Z,49.80
2023-02-01T01:54:22.572Z,49.60
2023-02-01T01:56:54.860Z,49.80
2023-02-01T01:59:24.165Z,49.90
2023-02-01T02:01:53.222Z,50.10
2023-02-01T02:04:20.939Z,50.10
2023-02-01T02:06:56.547Z,50.00
2023-02-01T02:09:23.610Z,50.10
2023-02-01T02:11:50.525Z,50.10
2023-02-01T02:14:20.731Z,50.10
2023-02-01T02:17:17.372Z,50.30
2023-02-01T02:20:06.143Z,50.20
2023-02-01T02:23:10.258Z,50.20
2023-02-01T02:25:44.270Z,50.10
2023-02-01T02:28:13.978Z,50.10
2023-02-01T02:31:06.900Z,49.90
2023-02-01T02:33:43.641Z,50.10
2023-02-01T02:36:22.679Z,50.20
2023-02-01T02:39:19.858Z,50.40
2023-02-01T02:42:37.407Z,50.70
2023-02-01T02:45:31.546Z,50.90
2023-02-01T02:48:07.755Z,50.90
2023-02-01T02:50:58.090Z,50.90
2023-02-01T02:53:58.211Z,50.70
2023-02-01T02:56:46.018Z,50.80
2023-02-01T02:59:35.230Z,50.60
2023-02-01T03:02:20.772Z,51.20
2023-02-01T03:04:47.723Z,50.30
2023-02-01T03:07:36.599Z,50.20
2023-02-01T03:10:11.712Z,50.10
2023-02-01T03:12:57.705Z,49.80
2023-02-01T03:15:33.247Z,50.00
2023-02-01T03:18:06.214Z,49.90
2023-02-01T03:20:33.483Z,49.90
2023-02-01T03:23:01.465Z,50.00
2023-02-01T03:25:31.956Z,50.40
2023-02-01T03:28:03.853Z,50.20
2023-02-01T03:30:38.795Z,50.40
2023-02-01T03:33:14.941Z,50.10
2023-02-01T03:36:12.553Z,50.20
2023-02-01T03:39:04.308Z,50.10
2023-02-01T03:41:48.964Z,50.40
2023-02-01T03:44:22.748Z,51.00
2023-02-01T03:47:28.735Z,50.50
2023-02-01T03:50:06.851Z,50.40
2023-02-01T03:53:08.855Z,50.60
2023-02-01T03:55:37.618Z,50.70
2023-02-01T03:58:09.273Z,50.50
2023-02-01T04:00:36.753Z,50.40
2023-02-01T04:03:06.399Z,50.50
2023-02-01T04:05:33.607Z,50.80
2023-02-01T04:08:00.678Z,50.80
2023-02-01T04:10:28.450Z,50.70
2023-02-01T04:12:55.452Z,50.70
2023-02-01T04:15:22.291Z,50.80
2023-02-01T04:17:49.202Z,50.80
2023-02-01T04:20:16.225Z,50.90
2023-02-01T04:22:43.138Z,50.90
2023-02-01T04:25:10.205Z,51.00
2023-02-01T04:27:37.110Z,51.00
2023-02-01T04:30:05.787Z,51.00
2023-02-01T04:32:32.632Z,51.20
2023-02-01T04:34:59.505Z,51.30
2023-02-01T04:37:26.366Z,51.20
2023-02-01T04:39:53.201Z,51.20
2023-02-01T04:42:20.061Z,51.40
2023-02-01T04:44:46.946Z,51.40
2023-02-01T04:47:13.840Z,51.60
2023-02-01T04:49:40.673Z,51.70
2023-02-01T04:52:07.669Z,51.80
2023-02-01T04:54:35.039Z,51.90
2023-02-01T04:57:01.926Z,51.90
2023-02-01T04:59:29.880Z,51.80
2023-02-01T05:01:56.856Z,51.60
2023-02-01T05:04:23.761Z,51.50
2023-02-01T05:06:50.618Z,51.30
2023-02-01T05:09:18.022Z,51.20
2023-02-01T05:12:03.407Z,51.30
2023-02-01T05:14:30.248Z,51.30
2023-02-01T05:16:57.227Z,50.90
2023-02-01T05:19:24.044Z,50.70
2023-02-01T05:21:50.910Z,50.70
2023-02-01T05:24:20.891Z,50.60
2023-02-01T05:26:49.150Z,50.70
2023-02-01T05:29:17.905Z,51.10
2023-02-01T05:31:48.719Z,51.60
2023-02-01T05:34:16.651Z,51.50
2023-02-01T05:36:44.104Z,51.50
2023-02-01T05:39:11.311Z,51.40
2023-02-01T05:41:38.691Z,51.10
2023-02-01T05:44:08.353Z,51.00
2023-02-01T05:46:36.761Z,50.90
2023-02-01T05:49:04.514Z,50.80
2023-02-01T05:51:31.565Z,50.70
2023-02-01T05:53:58.439Z,50.70
2023-02-01T05:56:25.285Z,50.80
2023-02-01T05:58:52.114Z,51.00
2023-02-01T06:01:18.954Z,51.20
2023-02-01T06:03:45.860Z,51.00
2023-02-01T06:06:12.771Z,50.80
2023-02-01T06:08:41.307Z,50.50
2023-02-01T06:11:08.856Z,50.30
2023-02-01T06:13:35.893Z,50.10
2023-02-01T06:16:04.488Z,50.00
2023-02-01T06:18:31.775Z,50.10
2023-02-01T06:21:03.360Z,50.50
2023-02-01T06:23:31.301Z,50.80
2023-02-01T06:26:08.657Z,51.10
2023-02-01T06:28:35.825Z,51.10
2023-02-01T06:31:08.852Z,51.20
2023-02-01T06:33:36.607Z,51.60
2023-02-01T06:36:06.280Z,51.70
2023-02-01T06:38:35.848Z,51.70
2023-02-01T06:41:03.609Z,51.60
2023-02-01T06:43:31.016Z,51.90
2023-02-01T06:46:02.927Z,51.90
2023-02-01T06:48:30.240Z,52.10
2023-02-01T06:50:57.129Z,52.40
2023-02-01T06:53:24.037Z,52.60
2023-02-01T06:55:58.703Z,52.50
2023-02-01T06:58:28.725Z,52.50
2023-02-01T07:00:55.593Z,52.40
2023-02-01T07:03:22.508Z,52.30
2023-02-01T07:05:49.445Z,52.20
2023-02-01T07:08:16.355Z,52.30
2023-02-01T07:10:43.292Z,52.30
2023-02-01T07:13:10.160Z,52.70
2023-02-01T07:15:37.070Z,52.90
2023-02-01T07:18:04.097Z,53.00
2023-02-01T07:20:31.058Z,53.10
2023-02-01T07:22:58.675Z,53.20
2023-02-01T07:25:25.822Z,53.00
2023-02-01T07:27:52.863Z,52.90
2023-02-01T07:30:20.261Z,52.90
2023-02-01T07:32:47.149Z,52.90
2023-02-01T07:35:15.235Z,52.70
2023-02-01T07:37:42.176Z,52.50
2023-02-01T07:40:10.014Z,52.30
2023-02-01T07:42:36.908Z,52.20
2023-02-01T07:45:19.939Z,52.30
2023-02-01T07:47:48.049Z,52.40
2023-02-01T07:50:15.299Z,52.60
2023-02-01T07:52:42.224Z,52.60
2023-02-01T07:55:09.702Z,52.60
2023-02-01T07:57:36.637Z,52.60
2023-02-01T08:00:23.286Z,52.60
2023-02-01T08:02:50.343Z,52.50
2023-02-01T08:05:17.243Z,52.50
2023-02-01T08:07:44.128Z,52.50
2023-02-01T08:10:12.579Z,52.40
2023-02-01T08:12:39.557Z,52.50
2023-02-01T08:15:07.105Z,52.40
2023-02-01T08:17:34.510Z,52.30
2023-02-01T08:20:01.416Z,52.20
2023-02-01T08:22:33.526Z,52.30
2023-02-01T08:25:02.387Z,51.80
2023-02-01T08:27:29.375Z,51.80
2023-02-01T08:29:56.486Z,51.70
2023-02-01T08:32:23.359Z,51.50
2023-02-01T08:34:50.175Z,51.30
2023-02-01T08:37:17.067Z,51.30
2023-02-01T08:39:47.872Z,51.10
2023-02-01T08:42:33.264Z,51.00
2023-02-01T08:45:00.230Z,50.90
2023-02-01T08:47:27.182Z,51.00
2023-02-01T08:49:54.641Z,50.90
2023-02-01T08:52:21.850Z,50.80
2023-02-01T08:54:48.754Z,50.90
2023-02-01T08:57:16.359Z,50.80
2023-02-01T08:59:45.065Z,51.00
2023-02-01T09:02:16.291Z,50.90
2023-02-01T09:04:43.448Z,50.60
2023-02-01T09:07:11.442Z,50.50
2023-02-01T09:09:39.244Z,50.50
2023-02-01T09:12:06.499Z,50.50
2023-02-01T09:14:33.472Z,50.40
2023-02-01T09:17:00.329Z,50.50
2023-02-01T09:19:27.565Z,50.30
2023-02-01T09:21:54.859Z,50.30
2023-02-01T09:24:22.139Z,50.20
2023-02-01T09:26:49.492Z,50.20
2023-02-01T09:29:16.403Z,50.50
2023-02-01T09:31:49.903Z,50.60
2023-02-01T09:34:24.485Z,50.80
2023-02-01T09:36:51.483Z,50.90
2023-02-01T09:39:18.445Z,51.30
2023-02-01T09:42:10.343Z,51.60
2023-02-01T09:44:58.588Z,51.70
2023-02-01T09:47:27.227Z,51.90
2023-02-01T09:50:07.501Z,51.70
2023-02-01T09:52:45.836Z,51.70
2023-02-01T09:55:28.650Z,51.90
2023-02-01T09:58:02.239Z,52.10
2023-02-01T10:00:34.694Z,52.20
2023-02-01T10:03:01.675Z,52.60
2023-02-01T10:05:56.966Z,53.00
2023-02-01T10:08:42.348Z,53.10
2023-02-01T10:11:50.336Z,53.40
2023-02-01T10:14:31.904Z,53.10
2023-02-01T10:17:23.246Z,52.80
2023-02-01T10:20:17.819Z,52.60
2023-02-01T10:23:13.370Z,52.60
2023-02-01T10:25:55.479Z,52.40
2023-02-01T10:28:24.233Z,52.70
2023-02-01T10:30:58.855Z,53.00
2023-02-01T10:33:31.327Z,53.10
2023-02-01T10:36:22.574Z,53.10
2023-02-01T10:38:49.832Z,53.30
2023-02-01T10:41:22.307Z,53.30
2023-02-01T10:43:54.253Z,53.30
2023-02-01T10:46:23.543Z,53.40
2023-02-01T10:48:52.180Z,53.50
2023-02-01T10:51:59.150Z,53.60
2023-02-01T10:54:39.356Z,53.80
2023-02-01T10:57:11.685Z,53.80
2023-02-01T10:59:39.536Z,53.90
2023-02-01T11:02:36.144Z,53.90
2023-02-01T11:05:10.054Z,54.00
2023-02-01T11:07:37.611Z,54.10
2023-02-01T11:10:05.479Z,53.70
2023-02-01T11:12:35.222Z,54.10
2023-02-01T11:15:17.954Z,54.20
2023-02-01T11:17:47.247Z,54.20
2023-02-01T11:20:16.512Z,54.30
2023-02-01T11:22:54.560Z,54.50
2023-02-01T11:25:23.521Z,54.60
2023-02-01T11:27:55.302Z,54.90
2023-02-01T11:30:39.566Z,55.20
2023-02-01T11:33:08.611Z,55.40
2023-02-01T11:35:41.004Z,55.50
2023-02-01T11:38:33.585Z,55.70
2023-02-01T11:41:25.680Z,55.80
2023-02-01T11:43:58.753Z,56.00
2023-02-01T11:46:32.816Z,56.20
2023-02-01T11:49:26.217Z,56.40
2023-02-01T11:52:16.094Z,56.30
2023-02-01T11:54:59.353Z,56.30
2023-02-01T11:57:29.351Z,56.00
2023-02-01T11:59:59.227Z,56.00
2023-02-01T12:02:46.750Z,55.90
2023-02-01T12:05:22.649Z,55.80
2023-02-01T12:08:03.648Z,55.90
2023-02-01T12:10:30.470Z,56.00
2023-02-01T12:13:31.556Z,55.80
2023-02-01T12:16:20.568Z,55.70
2023-02-01T12:19:14.513Z,56.00
2023-02-01T12:22:03.614Z,55.80
2023-02-01T12:24:55.967Z,55.70
2023-02-01T12:27:50.645Z,55.70
2023-02-01T12:30:42.122Z,55.90
2023-02-01T12:33:46.764Z,55.70
2023-02-01T12:36:28.525Z,55.70
2023-02-01T12:39:07.155Z,55.90
2023-02-01T12:41:45.723Z,55.90
2023-02-01T12:44:18.245Z,55.70
2023-02-01T12:46:50.973Z,55.60
2023-02-01T12:49:28.692Z,55.60
2023-02-01T12:52:27.340Z,55.60
2023-02-01T12:55:10.619Z,55.60
2023-02-01T12:57:43.406Z,55.60
2023-02-01T13:00:24.381Z,55.60
2023-02-01T13:03:06.177Z,55.70
2023-02-01T13:05:54.156Z,55.50
2023-02-01T13:08:30.166Z,55.30
2023-02-01T13:11:07.126Z,55.30
2023-02-01T13:13:47.231Z,54.90
2023-02-01T13:16:22.311Z,54.60
2023-02-01T13:18:54.653Z,54.60
2023-02-01T13:21:31.560Z,54.60
2023-02-01T13:23:59.450Z,54.40
2023-02-01T13:26:26.429Z,54.30
2023-02-01T13:28:55.425Z,54.50
2023-02-01T13:32:00.145Z,54.50
2023-02-01T13:34:57.502Z,54.60
2023-02-01T13:37:58.571Z,54.50
2023-02-01T13:40:50.778Z,55.60
2023-02-01T13:43:27.278Z,54.90
2023-02-01T13:45:57.853Z,54.80
2023-02-01T13:48:32.718Z,55.10
2023-02-01T13:51:00.886Z,55.00
2023-02-01T13:53:34.623Z,55.10
2023-02-01T13:56:23.497Z,55.00
2023-02-01T13:58:52.391Z,54.70
2023-02-01T14:01:22.375Z,55.00
2023-02-01T14:03:57.675Z,54.90
2023-02-01T14:06:27.669Z,54.80
2023-02-01T14:09:39.853Z,55.10
2023-02-01T14:12:45.411Z,55.00
2023-02-01T14:15:28.379Z,55.10
2023-02-01T14:17:56.230Z,55.00
2023-02-01T14:20:42.069Z,54.60
2023-02-01T14:23:20.744Z,54.30
2023-02-01T14:25:58.108Z,54.00
2023-02-01T14:28:29.216Z,53.90
2023-02-01T14:30:58.741Z,53.80
2023-02-01T14:33:29.048Z,53.70
2023-02-01T14:36:09.610Z,53.60
2023-02-01T14:38:39.819Z,53.30
2023-02-01T14:41:30.979Z,53.00
2023-02-01T14:44:03.957Z,53.00
2023-02-01T14:47:06.139Z,53.30
2023-02-01T14:50:02.470Z,53.30
2023-02-01T14:52:43.325Z,53.20
2023-02-01T14:55:19.749Z,53.40
2023-02-01T14:57:50.157Z,53.30
2023-02-01T15:00:29.473Z,53.30
2023-02-01T15:03:16.817Z,53.40
2023-02-01T15:05:43.792Z,53.60
2023-02-01T15:08:21.747Z,53.30
2023-02-01T15:10:53.309Z,53.40
2023-02-01T15:13:28.635Z,53.40
2023-02-01T15:16:12.926Z,53.60
2023-02-01T15:18:41.001Z,53.30
2023-02-01T15:21:29.787Z,54.20
2023-02-01T15:24:15.577Z,53.40
2023-02-01T15:26:42.654Z,53.30
2023-02-01T15:29:14.671Z,53.30
2023-02-01T15:31:45.848Z,53.30
2023-02-01T15:34:13.505Z,53.30
2023-02-01T15:36:45.829Z,53.30
2023-02-01T15:39:27.594Z,53.30
2023-02-01T15:41:57.907Z,53.20
2023-02-01T15:44:43.033Z,53.10
2023-02-01T15:47:24.424Z,53.00
2023-02-01T15:49:59.589Z,53.00
2023-02-01T15:52:37.237Z,52.90
2023-02-01T15:55:08.440Z,52.90
2023-02-01T15:57:41.923Z,52.90
2023-02-01T16:00:23.345Z,53.10
2023-02-01T16:02:56.248Z,53.10
2023-02-01T16:05:45.726Z,53.20
2023-02-01T16:08:22.958Z,53.30
2023-02-01T16:10:53.055Z,53.50
2023-02-01T16:13:21.544Z,53.60
2023-02-01T16:15:49.565Z,53.70
2023-02-01T16:18:18.900Z,54.50
2023-02-01T16:20:48.188Z,53.90
2023-02-01T16:23:15.554Z,54.00
2023-02-01T16:25:42.657Z,54.10
2023-02-01T16:28:09.709Z,54.20
2023-02-01T16:30:36.964Z,54.40
2023-02-01T16:33:05.935Z,54.50
2023-02-01T16:35:36.883Z,54.70
2023-02-01T16:38:16.187Z,54.90
2023-02-01T16:40:44.421Z,54.90
2023-02-01T16:43:18.899Z,55.10
2023-02-01T16:45:49.751Z,55.20
2023-02-01T16:48:26.728Z,55.30
2023-02-01T16:50:59.205Z,55.30
2023-02-01T16:53:28.712Z,55.20
2023-02-01T16:55:55.741Z,55.30
2023-02-01T16:58:22.675Z,55.30
2023-02-01T17:00:50.396Z,55.30
2023-02-01T17:03:20.081Z,55.40
2023-02-01T17:05:57.801Z,55.40
2023-02-01T17:08:39.711Z,55.40
2023-02-01T17:11:07.772Z,55.40
2023-02-01T17:13:35.431Z,55.40
2023-02-01T17:16:29.732Z,55.50
2023-02-01T17:19:04.337Z,55.50
2023-02-01T17:22:02.673Z,55.50
2023-02-01T17:24:42.723Z,55.60
2023-02-01T17:27:15.888Z,55.60
2023-02-01T17:29:43.822Z,55.60
2023-02-01T17:32:18.734Z,55.70
2023-02-01T17:34:46.512Z,55.70
2023-02-01T17:37:29.030Z,55.70
2023-02-01T17:39:56.319Z,55.70
2023-02-01T17:42:27.959Z,55.80
2023-02-01T17:45:12.695Z,55.90
2023-02-01T17:47:39.535Z,55.90
2023-02-01T17:50:06.852Z,55.90
2023-02-01T17:52:33.644Z,55.90
2023-02-01T17:55:00.467Z,56.10
2023-02-01T17:57:27.327Z,56.20
2023-02-01T17:59:54.182Z,56.20
2023-02-01T18:02:23.499Z,56.30
2023-02-01T18:04:51.387Z,56.30
2023-02-01T18:07:18.268Z,56.20
2023-02-01T18:09:45.107Z,56.30
2023-02-01T18:12:23.516Z,56.30
2023-02-01T18:14:50.392Z,56.30
2023-02-01T18:17:17.245Z,56.20
2023-02-01T18:19:44.119Z,56.20
2023-02-01T18:22:17.164Z,56.20
2023-02-01T18:24:44.141Z,56.30
2023-02-01T18:27:10.986Z,56.20
2023-02-01T18:29:37.834Z,56.40
2023-02-01T18:32:04.942Z,56.40
2023-02-01T18:34:31.887Z,56.40
2023-02-01T18:36:58.847Z,56.60
2023-02-01T18:39:25.767Z,56.50
2023-02-01T18:41:53.005Z,56.60
2023-02-01T18:44:19.933Z,56.70
2023-02-01T18:46:46.928Z,56.80
2023-02-01T18:49:18.013Z,56.90
2023-02-01T18:51:45.420Z,56.90
2023-02-01T18:54:12.456Z,57.00
2023-02-01T18:56:39.934Z,57.10
2023-02-01T18:59:06.828Z,57.10
2023-02-01T19:01:33.732Z,57.10
2023-02-01T19:04:09.647Z,57.30
2023-02-01T19:06:47.897Z,57.30
2023-02-01T19:09:14.731Z,57.30
2023-02-01T19:11:41.607Z,57.20
2023-02-01T19:14:08.456Z,57.20
2023-02-01T19:16:39.778Z,57.20
2023-02-01T19:19:06.688Z,57.10
2023-02-01T19:21:33.599Z,57.20
2023-02-01T19:24:00.511Z,57.20
2023-02-01T19:26:27.349Z,57.10
2023-02-01T19:28:54.473Z,57.00
2023-02-01T19:31:21.510Z,57.50
2023-02-01T19:33:48.500Z,57.10
2023-02-01T19:36:15.485Z,57.20
2023-02-01T19:38:42.340Z,57.30
2023-02-01T19:41:09.194Z,57.40
2023-02-01T19:43:36.981Z,57.60
2023-02-01T19:46:04.455Z,57.70
2023-02-01T19:48:31.872Z,57.80
2023-02-01T19:50:59.436Z,57.90
2023-02-01T19:53:27.974Z,58.00
2023-02-01T19:55:58.924Z,58.10
2023-02-01T19:58:26.500Z,58.10
2023-02-01T20:00:57.216Z,58.20
2023-02-01T20:03:24.387Z,58.30
2023-02-01T20:05:56.243Z,58.60
2023-02-01T20:08:23.637Z,58.60
2023-02-01T20:10:50.469Z,58.70
2023-02-01T20:13:17.358Z,58.90
2023-02-01T20:15:44.321Z,58.90
2023-02-01T20:18:11.297Z,58.90
2023-02-01T20:20:38.214Z,58.90
2023-02-01T20:23:06.439Z,58.90
2023-02-01T20:25:34.266Z,58.90
2023-02-01T20:28:01.330Z,58.90
2023-02-01T20:30:29.436Z,59.00
2023-02-01T20:32:56.375Z,59.10
2023-02-01T20:35:23.666Z,59.00
2023-02-01T20:37:51.846Z,59.10
2023-02-01T20:40:18.902Z,59.10
2023-02-01T20:42:45.777Z,59.10
2023-02-01T20:45:12.597Z,59.30
2023-02-01T20:47:41.458Z,59.40
2023-02-01T20:50:09.177Z,59.50
2023-02-01T20:52:35.999Z,59.60
2023-02-01T20:55:03.100Z,59.60
2023-02-01T20:57:30.073Z,59.80
2023-02-01T20:59:56.936Z,60.10
2023-02-01T21:02:24.638Z,60.20
2023-02-01T21:04:51.494Z,60.30
2023-02-01T21:07:18.629Z,60.40
2023-02-01T21:09:45.438Z,60.40
2023-02-01T21:12:12.469Z,60.60
2023-02-01T21:14:39.349Z,60.50
2023-02-01T21:17:06.163Z,60.50
2023-02-01T21:19:43.103Z,60.50
2023-02-01T21:22:14.925Z,60.50
2023-02-01T21:24:42.573Z,60.10
2023-02-01T21:27:10.137Z,59.90
2023-02-01T21:29:37.256Z,59.80
2023-02-01T21:32:05.788Z,59.70
2023-02-01T21:34:33.481Z,59.50
2023-02-01T21:37:00.403Z,59.30
2023-02-01T21:39:29.009Z,59.20
2023-02-01T21:42:14.632Z,59.00
2023-02-01T21:44:42.424Z,58.70
2023-02-01T21:47:10.858Z,58.50
2023-02-01T21:49:37.722Z,58.60
2023-02-01T21:52:05.597Z,58.70
2023-02-01T21:54:32.437Z,58.90
2023-02-01T21:56:59.284Z,58.90
2023-02-01T21:59:26.224Z,59.00
2023-02-01T22:01:53.496Z,59.00
2023-02-01T22:04:20.311Z,59.00
2023-02-01T22:06:47.267Z,59.00
2023-02-01T22:09:23.227Z,59.00
2023-02-01T22:11:51.489Z,59.00
2023-02-01T22:14:19.045Z,59.00
2023-02-01T22:16:46.503Z,59.00
2023-02-01T22:19:13.887Z,59.10
2023-02-01T22:21:42.317Z,59.10
2023-02-01T22:24:11.281Z,59.00
2023-02-01T22:26:38.646Z,59.00
2023-02-01T22:29:06.276Z,58.90
2023-02-01T22:31:33.305Z,58.90
2023-02-01T22:34:00.604Z,58.80
2023-02-01T22:36:27.641Z,58.80
2023-02-01T22:38:54.514Z,58.90
2023-02-01T22:41:21.382Z,58.90
2023-02-01T22:43:48.306Z,58.90
2023-02-01T22:46:18.038Z,58.80
2023-02-01T22:48:46.747Z,58.80
2023-02-01T22:51:25.145Z,58.80
2023-02-01T22:53:57.200Z,58.80
2023-02-01T22:56:26.364Z,58.90
2023-02-01T22:58:58.378Z,58.80
2023-02-01T23:01:25.579Z,58.70
2023-02-01T23:03:57.467Z,58.50
2023-02-01T23:06:24.990Z,58.40
2023-02-01T23:08:56.417Z,58.30
2023-02-01T23:11:24.142Z,58.20
2023-02-01T23:13:51.323Z,58.20
2023-02-01T23:16:18.476Z,58.20
2023-02-01T23:18:45.334Z,58.20
2023-02-01T23:21:18.177Z,58.20
2023-02-01T23:23:54.773Z,58.20
2023-02-01T23:26:23.535Z,58.30
2023-02-01T23:28:54.209Z,58.50
2023-02-01T23:31:23.017Z,59.20
2023-02-01T23:33:54.727Z,58.40
2023-02-01T23:36:23.317Z,58.60
2023-02-01T23:38:50.777Z,58.70
2023-02-01T23:41:19.369Z,58.80
2023-02-01T23:43:58.924Z,58.70
2023-02-01T23:46:26.189Z,58.70
2023-02-01T23:48:53.333Z,58.80
2023-02-01T23:51:21.198Z,58.80
2023-02-01T23:53:48.366Z,58.80
2023-02-01T23:56:39.640Z,58.80
2023-02-01T23:59:09.962Z,58.80
